createdAt,value
2022-09-10T00:00:37.574Z,1.80
2022-09-10T00:05:41.071Z,1.67
2022-09-10T00:10:45.090Z,2.20
2022-09-10T00:15:51.995Z,2.00
2022-09-10T00:20:55.407Z,2.00
2022-09-10T00:25:57.875Z,2.05
2022-09-10T00:30:59.407Z,1.90
2022-09-10T00:36:01.003Z,2.10
2022-09-10T00:41:04.841Z,2.00
2022-09-10T00:46:06.520Z,1.70
2022-09-10T00:51:08.137Z,2.22
2022-09-10T00:56:09.842Z,1.60
2022-09-10T01:01:11.546Z,1.80
2022-09-10T01:06:13.396Z,2.13
2022-09-10T01:11:42.434Z,1.88
2022-09-10T01:16:57.039Z,1.80
2022-09-10T01:22:29.481Z,1.70
2022-09-10T01:27:51.144Z,2.03
2022-09-10T01:33:02.000Z,1.52
2022-09-10T01:38:12.491Z,1.58
2022-09-10T01:43:14.930Z,1.70
2022-09-10T01:48:40.789Z,1.40
2022-09-10T01:53:56.395Z,1.58
2022-09-10T01:59:04.156Z,1.30
2022-09-10T02:04:15.246Z,1.60
2022-09-10T02:09:18.610Z,1.80
2022-09-10T02:14:21.890Z,1.48
2022-09-10T02:19:43.087Z,1.40
2022-09-10T02:24:44.809Z,1.38
2022-09-10T02:29:46.344Z,1.75
2022-09-10T02:34:48.327Z,1.60
2022-09-10T02:39:50.329Z,1.48
2022-09-10T02:44:53.532Z,1.40
2022-09-10T02:49:55.106Z,1.40
2022-09-10T02:54:57.167Z,1.75
2022-09-10T02:59:58.673Z,1.55
2022-09-10T03:05:04.902Z,1.70
2022-09-10T03:10:07.315Z,1.58
2022-09-10T03:15:09.543Z,1.33
2022-09-10T03:20:11.161Z,1.40
2022-09-10T03:25:12.706Z,1.48
2022-09-10T03:30:14.958Z,1.25
2022-09-10T03:35:16.896Z,1.60
2022-09-10T03:40:18.813Z,1.67
2022-09-10T03:45:20.353Z,1.40
2022-09-10T03:50:22.166Z,1.67
2022-09-10T03:55:25.605Z,1.17
2022-09-10T04:00:27.182Z,1.65
2022-09-10T04:05:29.534Z,1.80
2022-09-10T04:10:31.329Z,1.50
2022-09-10T04:15:33.232Z,1.58
2022-09-10T04:20:38.020Z,1.67
2022-09-10T04:25:43.682Z,1.40
2022-09-10T04:30:45.470Z,1.45
2022-09-10T04:35:47.094Z,1.70
2022-09-10T04:40:48.699Z,1.45
2022-09-10T04:45:50.405Z,1.67
2022-09-10T04:51:14.722Z,1.20
2022-09-10T04:56:17.101Z,1.70
2022-09-10T05:01:18.720Z,1.92
2022-09-10T05:06:23.427Z,1.60
2022-09-10T05:11:25.416Z,1.73
2022-09-10T05:16:27.917Z,1.55
2022-09-10T05:21:31.126Z,2.00
2022-09-10T05:26:33.078Z,1.83
2022-09-10T05:31:35.288Z,1.90
2022-09-10T05:36:37.026Z,1.83
2022-09-10T05:41:39.042Z,1.77
2022-09-10T05:46:40.653Z,2.00
2022-09-10T05:51:48.052Z,1.92
2022-09-10T05:56:51.322Z,2.03
2022-09-10T06:01:53.214Z,1.80
2022-09-10T06:06:56.579Z,1.92
2022-09-10T06:11:59.316Z,1.90
2022-09-10T06:17:01.294Z,1.85
2022-09-10T06:22:05.029Z,1.92
2022-09-10T06:27:11.759Z,1.50
2022-09-10T06:32:14.738Z,1.67
2022-09-10T06:37:18.688Z,1.42
2022-09-10T06:42:20.803Z,1.65
2022-09-10T06:48:37.201Z,1.73
2022-09-10T06:53:26.875Z,1.00
2022-09-10T06:58:30.675Z,1.00
2022-09-10T07:03:32.358Z,0.90
2022-09-10T07:08:34.086Z,1.08
2022-09-10T07:13:35.801Z,1.10
2022-09-10T07:18:38.699Z,1.02
2022-09-10T07:23:40.944Z,0.90
2022-09-10T07:28:43.702Z,0.90
2022-09-10T07:33:47.021Z,1.15
2022-09-10T07:38:52.021Z,1.02
2022-09-10T07:43:55.388Z,0.80
2022-09-10T07:49:01.395Z,0.80
2022-09-10T07:54:03.352Z,0.90
2022-09-10T07:59:11.513Z,0.80
2022-09-10T08:04:19.482Z,1.00
2022-09-10T08:09:21.287Z,1.20
2022-09-10T08:14:28.048Z,0.90
2022-09-10T08:19:30.993Z,0.90
2022-09-10T08:24:33.058Z,0.90
2022-09-10T08:29:35.006Z,1.00
2022-09-10T08:34:37.021Z,0.90
2022-09-10T08:39:41.950Z,1.10
2022-09-10T08:44:49.781Z,1.10
2022-09-10T08:50:18.808Z,0.93
2022-09-10T08:55:21.762Z,1.33
2022-09-10T09:00:27.319Z,0.98
2022-09-10T09:05:33.477Z,1.25
2022-09-10T09:10:56.036Z,1.00
2022-09-10T09:16:28.784Z,1.20
2022-09-10T09:21:40.050Z,1.42
2022-09-10T09:26:45.422Z,1.38
2022-09-10T09:31:52.572Z,1.70
2022-09-10T09:36:55.311Z,1.05
2022-09-10T09:42:08.181Z,1.10
2022-09-10T09:47:09.912Z,1.00
2022-09-10T09:52:25.011Z,0.98
2022-09-10T09:57:27.329Z,1.63
2022-09-10T10:02:30.420Z,1.70
2022-09-10T10:07:34.568Z,1.23
2022-09-10T10:12:49.043Z,1.50
2022-09-10T10:17:51.482Z,1.27
2022-09-10T10:22:52.987Z,1.42
2022-09-10T10:27:54.537Z,1.10
2022-09-10T10:32:58.350Z,1.00
2022-09-10T10:38:22.757Z,1.00
2022-09-10T10:43:42.781Z,0.75
2022-09-10T10:48:47.263Z,1.00
2022-09-10T10:54:13.386Z,0.85
2022-09-10T10:59:44.661Z,0.85
2022-09-10T11:04:50.270Z,1.02
2022-09-10T11:10:11.412Z,1.00
2022-09-10T11:15:21.262Z,1.00
2022-09-10T11:20:30.104Z,1.20
2022-09-10T11:25:40.373Z,1.00
2022-09-10T11:30:46.884Z,1.20
2022-09-10T11:36:05.587Z,1.20
2022-09-10T11:41:23.465Z,0.80
2022-09-10T11:46:46.175Z,1.00
2022-09-10T11:51:48.140Z,1.10
2022-09-10T11:57:05.211Z,1.30
2022-09-10T12:02:25.340Z,1.10
2022-09-10T12:07:49.102Z,0.93
2022-09-10T12:12:51.084Z,1.40
2022-09-10T12:18:04.511Z,1.25
2022-09-10T12:23:06.386Z,1.02
2022-09-10T12:28:43.472Z,0.80
2022-09-10T12:33:48.676Z,1.10
2022-09-10T12:39:25.230Z,1.00
2022-09-10T12:44:36.125Z,1.10
2022-09-10T12:49:57.572Z,1.05
2022-09-10T12:55:16.867Z,0.90
2022-09-10T13:00:22.629Z,1.10
2022-09-10T13:05:33.523Z,1.10
2022-09-10T13:10:35.282Z,1.00
2022-09-10T13:15:38.957Z,1.05
2022-09-10T13:20:40.559Z,0.93
2022-09-10T13:25:43.856Z,1.02
2022-09-10T13:30:45.718Z,0.90
2022-09-10T13:35:47.550Z,1.00
2022-09-10T13:41:07.179Z,1.25
2022-09-10T13:46:12.759Z,1.10
2022-09-10T13:51:36.196Z,1.13
2022-09-10T13:56:43.571Z,1.00
2022-09-10T14:01:48.632Z,0.88
2022-09-10T14:06:50.531Z,1.20
2022-09-10T14:11:52.322Z,1.00
2022-09-10T14:16:59.987Z,0.90
2022-09-10T14:22:02.101Z,0.95
2022-09-10T14:27:27.615Z,1.00
2022-09-10T14:32:33.514Z,0.90
2022-09-10T14:37:39.660Z,1.00
2022-09-10T14:42:41.270Z,1.33
2022-09-10T14:47:51.792Z,1.35
2022-09-10T14:52:54.263Z,1.30
2022-09-10T14:57:55.973Z,1.20
2022-09-10T15:02:57.587Z,1.30
2022-09-10T15:07:59.188Z,1.52
2022-09-10T15:13:00.826Z,0.95
2022-09-10T15:18:02.819Z,0.90
2022-09-10T15:23:04.398Z,1.20
2022-09-10T15:28:07.556Z,1.40
2022-09-10T15:33:13.113Z,1.60
2022-09-10T15:38:15.919Z,1.20
2022-09-10T15:43:19.286Z,1.25
2022-09-10T15:48:20.807Z,0.90
2022-09-10T15:53:22.346Z,1.00
2022-09-10T15:58:25.605Z,0.93
2022-09-10T16:03:27.124Z,0.90
2022-09-10T16:08:28.667Z,0.98
2022-09-10T16:13:30.730Z,1.00
2022-09-10T16:18:32.811Z,1.10
2022-09-10T16:23:35.057Z,1.00
2022-09-10T16:28:37.323Z,1.10
2022-09-10T16:33:38.864Z,1.10
2022-09-10T16:38:41.774Z,1.25
2022-09-10T16:43:43.936Z,0.90
2022-09-10T16:48:45.794Z,1.00
2022-09-10T16:53:56.892Z,0.93
2022-09-10T16:58:58.458Z,1.20
2022-09-10T17:04:00.230Z,0.93
2022-09-10T17:09:02.084Z,1.30
2022-09-10T17:14:03.836Z,1.10
2022-09-10T17:19:10.954Z,1.08
2022-09-10T17:24:13.333Z,1.10
2022-09-10T17:29:17.512Z,1.10
2022-09-10T17:34:24.395Z,1.40
2022-09-10T17:39:29.295Z,1.27
2022-09-10T17:44:30.818Z,1.20
2022-09-10T17:49:33.254Z,1.27
2022-09-10T17:54:34.837Z,1.38
2022-09-10T17:59:37.145Z,1.60
2022-09-10T18:04:38.686Z,1.90
2022-09-10T18:09:40.363Z,1.50
2022-09-10T18:14:42.147Z,1.70
2022-09-10T18:19:43.832Z,1.83
2022-09-10T18:24:45.414Z,1.83
2022-09-10T18:29:46.967Z,1.80
2022-09-10T18:34:48.620Z,2.28
2022-09-10T18:39:50.692Z,2.30
2022-09-10T18:44:52.282Z,2.17
2022-09-10T18:49:53.833Z,2.17
2022-09-10T18:54:55.480Z,2.40
2022-09-10T18:59:57.162Z,2.35
2022-09-10T19:05:11.320Z,2.53
2022-09-10T19:10:13.695Z,2.83
2022-09-10T19:15:15.325Z,3.13
2022-09-10T19:20:16.883Z,2.90
2022-09-10T19:25:18.397Z,3.65
2022-09-10T19:30:19.888Z,3.53
2022-09-10T19:35:21.465Z,3.80
2022-09-10T19:40:23.015Z,3.92
2022-09-10T19:45:26.289Z,4.32
2022-09-10T19:50:28.203Z,3.63
2022-09-10T19:55:29.926Z,4.00
2022-09-10T20:00:46.433Z,3.20
2022-09-10T20:05:49.270Z,3.25
2022-09-10T20:10:51.891Z,3.47
2022-09-10T20:15:53.858Z,3.35
2022-09-10T20:20:55.468Z,3.40
2022-09-10T20:25:57.090Z,3.80
2022-09-10T20:30:59.243Z,3.28
2022-09-10T20:36:00.926Z,3.47
2022-09-10T20:41:02.862Z,3.45
2022-09-10T20:46:05.160Z,3.80
2022-09-10T20:51:07.421Z,3.85
2022-09-10T20:56:11.627Z,3.53
2022-09-10T21:01:24.010Z,3.72
2022-09-10T21:06:28.214Z,3.67
2022-09-10T21:11:31.309Z,3.55
2022-09-10T21:16:35.256Z,3.15
2022-09-10T21:21:37.197Z,3.50
2022-09-10T21:26:40.843Z,3.40
2022-09-10T21:31:42.868Z,3.55
2022-09-10T21:36:45.303Z,3.08
2022-09-10T21:41:49.186Z,3.20
2022-09-10T21:46:51.937Z,3.55
2022-09-10T21:51:53.580Z,3.05
2022-09-10T21:56:55.921Z,2.95
2022-09-10T22:01:57.532Z,2.70
2022-09-10T22:06:59.134Z,3.47
2022-09-10T22:12:00.781Z,3.33
2022-09-10T22:17:03.274Z,3.13
2022-09-10T22:22:06.065Z,3.53
2022-09-10T22:27:07.592Z,3.63
2022-09-10T22:32:09.233Z,3.00
2022-09-10T22:37:10.751Z,3.78
2022-09-10T22:42:12.278Z,3.47
2022-09-10T22:47:13.935Z,3.15
2022-09-10T22:52:15.668Z,3.40
2022-09-10T22:57:17.461Z,3.17
2022-09-10T23:02:19.162Z,2.80
2022-09-10T23:07:21.593Z,3.17
2022-09-10T23:12:23.149Z,2.85
2022-09-10T23:17:24.854Z,2.75
2022-09-10T23:22:26.378Z,2.20
2022-09-10T23:27:28.458Z,2.30
2022-09-10T23:32:30.026Z,2.30
2022-09-10T23:37:31.758Z,2.40
2022-09-10T23:42:33.374Z,2.35
2022-09-10T23:47:34.990Z,2.67
2022-09-10T23:52:36.551Z,2.40
2022-09-10T23:57:38.907Z,2.60
